createdAt,value
2019-04-25T00:02:17.318Z,11.50
2019-04-25T00:04:46.927Z,11.50
2019-04-25T00:07:37.075Z,11.50
2019-04-25T00:10:07.028Z,11.40
2019-04-25T00:12:37.847Z,11.50
2019-04-25T00:15:07.877Z,11.40
2019-04-25T00:17:37.874Z,11.50
2019-04-25T00:20:08.747Z,11.50
2019-04-25T00:23:03.105Z,11.50
2019-04-25T00:25:57.680Z,11.50
2019-04-25T00:28:27.400Z,11.50
2019-04-25T00:30:57.111Z,11.50
2019-04-25T00:33:27.848Z,11.50
2019-04-25T00:35:57.488Z,11.50
2019-04-25T00:38:27.171Z,11.40
2019-04-25T00:40:56.814Z,11.50
2019-04-25T00:43:26.444Z,11.50
2019-04-25T00:45:56.088Z,11.50
2019-04-25T00:48:25.712Z,11.60
2019-04-25T00:50:55.328Z,11.60
2019-04-25T00:53:25.001Z,11.60
2019-04-25T00:55:54.687Z,11.60
2019-04-25T00:58:44.436Z,11.60
2019-04-25T01:01:32.584Z,11.60
2019-04-25T01:04:02.422Z,11.60
2019-04-25T01:06:32.057Z,11.60
2019-04-25T01:09:02.169Z,11.70
2019-04-25T01:11:31.795Z,11.70
2019-04-25T01:14:02.169Z,11.70
2019-04-25T01:16:31.926Z,11.70
2019-04-25T01:19:01.525Z,11.70
2019-04-25T01:21:31.163Z,11.60
2019-04-25T01:24:01.203Z,11.60
2019-04-25T01:26:30.843Z,11.70
2019-04-25T01:29:00.519Z,11.70
2019-04-25T01:31:33.188Z,11.70
2019-04-25T01:34:04.364Z,11.70
2019-04-25T01:36:52.778Z,11.70
2019-04-25T01:39:39.572Z,11.70
2019-04-25T01:42:29.012Z,11.70
2019-04-25T01:44:58.939Z,11.70
2019-04-25T01:47:28.749Z,11.70
2019-04-25T01:49:58.506Z,11.70
2019-04-25T01:52:28.140Z,11.70
2019-04-25T01:54:57.770Z,11.60
2019-04-25T01:57:27.383Z,11.70
2019-04-25T01:59:57.525Z,11.70
2019-04-25T02:02:28.915Z,11.60
2019-04-25T02:04:59.410Z,11.70
2019-04-25T02:07:29.959Z,11.70
2019-04-25T02:09:59.692Z,11.70
2019-04-25T02:12:37.655Z,11.70
2019-04-25T02:15:07.883Z,11.70
2019-04-25T02:17:37.544Z,11.70
2019-04-25T02:20:07.266Z,11.70
2019-04-25T02:22:36.908Z,11.70
2019-04-25T02:25:08.083Z,11.70
2019-04-25T02:27:37.711Z,11.70
2019-04-25T02:30:08.979Z,11.70
2019-04-25T02:32:38.794Z,11.70
2019-04-25T02:35:09.775Z,11.60
2019-04-25T02:37:39.638Z,11.70
2019-04-25T02:40:09.492Z,11.70
2019-04-25T02:42:39.110Z,11.70
2019-04-25T02:45:28.848Z,11.70
2019-04-25T02:48:16.100Z,11.70
2019-04-25T02:50:56.405Z,11.70
2019-04-25T02:53:37.196Z,11.70
2019-04-25T02:56:25.714Z,11.70
2019-04-25T02:58:37.292Z,11.70
2019-04-25T03:01:18.016Z,11.70
2019-04-25T03:03:41.166Z,11.70
2019-04-25T03:06:10.802Z,11.60
2019-04-25T03:08:40.452Z,11.50
2019-04-25T03:11:10.088Z,11.50
2019-04-25T03:13:39.845Z,11.50
2019-04-25T03:16:11.009Z,11.50
2019-04-25T03:19:07.664Z,11.50
2019-04-25T03:21:37.551Z,11.60
2019-04-25T03:24:10.245Z,11.60
2019-04-25T03:26:40.622Z,11.60
2019-04-25T03:29:09.739Z,11.70
2019-04-25T03:31:39.453Z,11.80
2019-04-25T03:34:13.812Z,11.80
2019-04-25T03:36:40.358Z,11.70
2019-04-25T03:39:10.064Z,11.70
2019-04-25T03:41:39.768Z,11.70
2019-04-25T03:44:10.072Z,11.70
2019-04-25T03:46:39.709Z,11.70
2019-04-25T03:49:09.680Z,11.70
2019-04-25T03:51:39.379Z,11.60
2019-04-25T03:54:10.314Z,11.60
2019-04-25T03:56:49.886Z,11.60
2019-04-25T03:59:11.523Z,11.70
2019-04-25T04:01:41.268Z,11.60
2019-04-25T04:04:11.131Z,11.60
2019-04-25T04:06:40.852Z,11.60
2019-04-25T04:09:10.472Z,11.60
2019-04-25T04:11:40.152Z,11.50
2019-04-25T04:14:10.323Z,11.50
2019-04-25T04:16:44.352Z,11.50
2019-04-25T04:19:15.753Z,11.50
2019-04-25T04:21:53.254Z,11.50
2019-04-25T04:24:29.636Z,11.60
2019-04-25T04:27:27.125Z,11.60
2019-04-25T04:29:56.783Z,11.60
2019-04-25T04:32:26.396Z,11.60
2019-04-25T04:34:56.020Z,11.60
2019-04-25T04:37:25.664Z,11.70
2019-04-25T04:39:55.373Z,11.80
2019-04-25T04:42:25.048Z,11.90
2019-04-25T04:44:55.184Z,11.90
2019-04-25T04:47:24.791Z,12.00
2019-04-25T04:49:54.444Z,12.00
2019-04-25T04:52:25.722Z,12.10
2019-04-25T04:55:05.468Z,12.10
2019-04-25T04:57:32.934Z,12.10
2019-04-25T04:59:58.189Z,12.20
2019-04-25T05:02:56.040Z,12.20
2019-04-25T05:05:43.988Z,12.30
2019-04-25T05:08:34.654Z,12.30
2019-04-25T05:11:04.397Z,12.40
2019-04-25T05:13:34.286Z,12.40
2019-04-25T05:16:03.983Z,12.50
2019-04-25T05:18:38.083Z,12.60
2019-04-25T05:21:04.881Z,12.70
2019-04-25T05:23:34.616Z,12.80
2019-04-25T05:26:04.428Z,12.80
2019-04-25T05:28:34.168Z,12.90
2019-04-25T05:31:27.095Z,13.00
2019-04-25T05:33:56.772Z,13.10
2019-04-25T05:36:37.696Z,13.20
2019-04-25T05:39:11.195Z,13.20
2019-04-25T05:41:59.812Z,13.30
2019-04-25T05:44:29.526Z,13.20
2019-04-25T05:46:59.183Z,13.20
2019-04-25T05:49:28.816Z,13.30
2019-04-25T05:51:58.452Z,13.40
2019-04-25T05:54:28.241Z,13.50
2019-04-25T05:56:57.876Z,13.60
2019-04-25T05:59:28.006Z,13.60
2019-04-25T06:01:57.636Z,13.80
2019-04-25T06:04:27.369Z,13.90
2019-04-25T06:06:57.015Z,14.00
2019-04-25T06:09:45.564Z,14.10
2019-04-25T06:12:30.820Z,14.10
2019-04-25T06:15:00.547Z,14.10
2019-04-25T06:17:40.342Z,14.10
2019-04-25T06:20:13.344Z,14.20
2019-04-25T06:23:04.764Z,14.20
2019-04-25T06:25:39.463Z,14.10
2019-04-25T06:28:07.857Z,14.10
2019-04-25T06:30:37.476Z,13.90
2019-04-25T06:33:07.111Z,13.70
2019-04-25T06:35:36.748Z,13.50
2019-04-25T06:38:06.371Z,13.50
2019-04-25T06:40:35.993Z,13.60
2019-04-25T06:43:05.709Z,13.50
2019-04-25T06:45:50.252Z,13.60
2019-04-25T06:48:28.989Z,13.80
2019-04-25T06:50:58.640Z,13.70
2019-04-25T06:53:28.472Z,13.80
2019-04-25T06:55:58.161Z,13.80
2019-04-25T06:58:28.459Z,13.90
2019-04-25T07:01:00.961Z,13.90
2019-04-25T07:03:29.555Z,13.90
2019-04-25T07:05:59.173Z,13.90
2019-04-25T07:08:29.125Z,14.00
2019-04-25T07:10:59.068Z,14.00
2019-04-25T07:13:28.717Z,14.10
2019-04-25T07:15:58.363Z,14.10
2019-04-25T07:18:32.382Z,14.10
2019-04-25T07:20:59.381Z,14.00
2019-04-25T07:23:29.687Z,14.00
2019-04-25T07:26:06.074Z,13.80
2019-04-25T07:28:47.361Z,13.70
2019-04-25T07:31:38.728Z,13.60
2019-04-25T07:34:27.423Z,13.70
2019-04-25T07:36:57.184Z,13.50
2019-04-25T07:39:27.487Z,13.60
2019-04-25T07:41:57.179Z,13.50
2019-04-25T07:44:38.244Z,13.50
2019-04-25T07:46:58.236Z,13.50
2019-04-25T07:49:28.477Z,13.40
2019-04-25T07:51:58.332Z,13.40
2019-04-25T07:54:28.985Z,13.30
2019-04-25T07:56:58.622Z,13.30
2019-04-25T07:59:29.030Z,13.20
2019-04-25T08:01:58.867Z,13.30
2019-04-25T08:04:29.056Z,13.20
2019-04-25T08:06:58.728Z,13.20
2019-04-25T08:09:29.434Z,13.30
2019-04-25T08:11:59.253Z,13.30
2019-04-25T08:14:45.759Z,13.40
2019-04-25T08:17:16.283Z,13.40
2019-04-25T08:19:46.607Z,13.60
2019-04-25T08:22:16.475Z,13.50
2019-04-25T08:24:46.643Z,13.40
2019-04-25T08:27:16.264Z,13.40
2019-04-25T08:29:46.585Z,13.40
2019-04-25T08:32:16.380Z,13.50
2019-04-25T08:34:46.112Z,13.40
2019-04-25T08:37:18.887Z,13.40
2019-04-25T08:39:47.040Z,13.50
2019-04-25T08:42:16.652Z,13.50
2019-04-25T08:44:48.501Z,13.30
2019-04-25T08:47:18.125Z,13.20
2019-04-25T08:49:53.854Z,13.20
2019-04-25T08:52:24.373Z,13.40
2019-04-25T08:54:59.256Z,13.40
2019-04-25T08:57:47.782Z,13.30
2019-04-25T09:00:36.993Z,13.40
2019-04-25T09:03:10.132Z,13.50
2019-04-25T09:05:46.234Z,13.40
2019-04-25T09:08:16.137Z,13.40
2019-04-25T09:10:45.945Z,13.50
2019-04-25T09:13:15.569Z,13.50
2019-04-25T09:15:45.712Z,13.30
2019-04-25T09:18:15.655Z,13.30
2019-04-25T09:20:46.658Z,13.50
2019-04-25T09:23:16.616Z,13.40
2019-04-25T09:25:46.324Z,13.30
2019-04-25T09:28:16.021Z,13.40
2019-04-25T09:30:45.979Z,13.40
2019-04-25T09:33:15.795Z,13.40
2019-04-25T09:35:45.962Z,13.40
2019-04-25T09:38:15.882Z,13.40
2019-04-25T09:40:46.604Z,13.50
2019-04-25T09:43:16.331Z,13.50
2019-04-25T09:46:14.522Z,13.50
2019-04-25T09:49:12.041Z,13.50
2019-04-25T09:52:03.577Z,13.60
2019-04-25T09:54:57.029Z,13.80
2019-04-25T09:57:45.969Z,13.60
2019-04-25T10:00:36.499Z,13.40
2019-04-25T10:03:06.691Z,13.40
2019-04-25T10:05:37.089Z,13.50
2019-04-25T10:08:06.928Z,13.40
2019-04-25T10:10:36.564Z,13.50
2019-04-25T10:13:06.681Z,13.80
2019-04-25T10:16:07.458Z,13.80
2019-04-25T10:18:38.367Z,13.70
2019-04-25T10:21:11.994Z,13.80
2019-04-25T10:23:44.087Z,13.50
2019-04-25T10:26:14.103Z,13.40
2019-04-25T10:28:45.037Z,13.40
2019-04-25T10:31:14.792Z,13.30
2019-04-25T10:33:45.813Z,13.20
2019-04-25T10:36:16.293Z,13.20
2019-04-25T10:39:01.466Z,13.30
2019-04-25T10:41:17.942Z,13.40
2019-04-25T10:43:48.314Z,13.40
2019-04-25T10:46:18.440Z,13.40
2019-04-25T10:48:48.068Z,13.50
2019-04-25T10:51:17.703Z,13.70
2019-04-25T10:53:47.321Z,13.90
2019-04-25T10:56:16.956Z,14.20
2019-04-25T10:58:46.805Z,14.20
2019-04-25T11:01:16.695Z,14.10
2019-04-25T11:04:05.316Z,14.40
2019-04-25T11:06:34.945Z,14.80
2019-04-25T11:09:06.589Z,15.20
2019-04-25T11:11:36.567Z,15.70
2019-04-25T11:14:07.585Z,16.70
2019-04-25T11:16:37.328Z,18.10
2019-04-25T11:19:07.216Z,19.40
2019-04-25T11:21:36.935Z,20.40
2019-04-25T11:24:06.664Z,20.20
2019-04-25T11:26:36.304Z,20.40
2019-04-25T11:29:06.297Z,21.70
2019-04-25T11:31:44.826Z,22.20
2019-04-25T11:34:14.887Z,22.40
2019-04-25T11:36:45.314Z,23.50
2019-04-25T11:39:35.290Z,23.10
2019-04-25T11:42:08.493Z,23.50
2019-04-25T11:44:38.343Z,23.70
2019-04-25T11:47:08.752Z,25.10
2019-04-25T11:49:38.648Z,25.10
2019-04-25T11:52:09.078Z,24.00
2019-04-25T11:54:38.796Z,24.00
2019-04-25T11:57:08.527Z,23.70
2019-04-25T11:59:38.160Z,23.60
2019-04-25T12:02:14.288Z,23.10
2019-04-25T12:04:45.515Z,22.70
2019-04-25T12:07:15.382Z,23.00
2019-04-25T12:09:45.782Z,22.70
2019-04-25T12:12:16.274Z,22.60
2019-04-25T12:14:46.411Z,21.80
2019-04-25T12:17:16.699Z,20.80
2019-04-25T12:19:47.052Z,20.20
2019-04-25T12:22:16.848Z,20.80
2019-04-25T12:24:46.742Z,21.60
2019-04-25T12:27:16.456Z,23.00
2019-04-25T12:29:46.105Z,24.90
2019-04-25T12:32:15.832Z,25.10
2019-04-25T12:34:45.777Z,24.00
2019-04-25T12:37:15.511Z,23.30
2019-04-25T12:39:46.092Z,21.50
2019-04-25T12:42:16.559Z,20.10
2019-04-25T12:44:56.085Z,18.90
2019-04-25T12:47:27.440Z,18.90
2019-04-25T12:49:57.883Z,19.40
2019-04-25T12:52:27.565Z,21.10
2019-04-25T12:54:58.105Z,22.60
2019-04-25T12:57:28.016Z,22.20
2019-04-25T12:59:57.663Z,22.10
2019-04-25T13:02:27.395Z,20.60
2019-04-25T13:04:57.156Z,20.50
2019-04-25T13:07:26.765Z,20.10
2019-04-25T13:09:56.410Z,19.50
2019-04-25T13:12:26.480Z,19.20
2019-04-25T13:14:56.193Z,19.70
2019-04-25T13:17:38.213Z,20.20
2019-04-25T13:20:08.971Z,21.50
2019-04-25T13:22:38.572Z,24.30
2019-04-25T13:25:08.792Z,25.30
2019-04-25T13:27:58.536Z,24.00
2019-04-25T13:30:42.521Z,23.60
2019-04-25T13:33:23.536Z,24.60
2019-04-25T13:36:06.116Z,24.80
2019-04-25T13:38:35.794Z,25.30
2019-04-25T13:41:05.522Z,24.20
2019-04-25T13:43:35.552Z,24.40
2019-04-25T13:46:05.308Z,26.40
2019-04-25T13:48:35.638Z,27.20
2019-04-25T13:51:05.866Z,26.10
2019-04-25T13:53:35.492Z,24.20
2019-04-25T13:56:05.612Z,23.10
2019-04-25T13:58:35.368Z,22.90
2019-04-25T14:01:12.827Z,22.40
2019-04-25T14:03:37.076Z,22.70
2019-04-25T14:06:06.708Z,22.10
2019-04-25T14:08:36.332Z,21.00
2019-04-25T14:11:06.052Z,20.70
2019-04-25T14:13:35.972Z,21.00
2019-04-25T14:16:41.048Z,21.50
2019-04-25T14:19:36.690Z,23.00
2019-04-25T14:22:06.465Z,24.10
2019-04-25T14:24:36.151Z,23.40
2019-04-25T14:27:06.678Z,25.10
2019-04-25T14:29:36.311Z,24.70
2019-04-25T14:32:07.761Z,25.40
2019-04-25T14:34:37.380Z,26.70
2019-04-25T14:37:07.122Z,27.50
2019-04-25T14:39:36.739Z,28.60
2019-04-25T14:42:06.590Z,27.70
2019-04-25T14:44:36.247Z,27.30
2019-04-25T14:47:05.968Z,26.50
2019-04-25T14:49:35.624Z,25.30
2019-04-25T14:52:05.300Z,24.50
2019-04-25T14:54:50.271Z,24.70
2019-04-25T14:57:24.309Z,25.00
2019-04-25T14:59:54.128Z,25.40
2019-04-25T15:02:25.702Z,25.20
2019-04-25T15:04:55.467Z,25.50
2019-04-25T15:07:25.141Z,25.50
2019-04-25T15:09:54.872Z,25.10
2019-04-25T15:12:24.793Z,24.90
2019-04-25T15:14:54.547Z,25.70
2019-04-25T15:17:24.177Z,25.10
2019-04-25T15:19:53.816Z,24.60
2019-04-25T15:22:24.280Z,25.20
2019-04-25T15:24:54.387Z,23.80
2019-04-25T15:27:25.090Z,23.40
2019-04-25T15:29:54.771Z,23.40
2019-04-25T15:32:27.640Z,22.50
2019-04-25T15:34:58.560Z,20.70
2019-04-25T15:37:41.784Z,20.40
2019-04-25T15:40:24.137Z,20.40
2019-04-25T15:43:08.475Z,21.50
2019-04-25T15:45:52.527Z,20.80
2019-04-25T15:48:22.262Z,20.60
2019-04-25T15:50:52.313Z,20.00
2019-04-25T15:53:21.976Z,19.70
2019-04-25T15:55:51.692Z,19.40
2019-04-25T15:58:21.458Z,19.10
2019-04-25T16:00:51.172Z,18.90
2019-04-25T16:03:20.985Z,18.80
2019-04-25T16:05:50.692Z,18.60
2019-04-25T16:08:20.325Z,18.30
2019-04-25T16:10:50.084Z,18.20
2019-04-25T16:13:19.709Z,17.90
2019-04-25T16:15:49.452Z,17.70
2019-04-25T16:18:19.144Z,17.50
2019-04-25T16:20:48.804Z,17.20
2019-04-25T16:23:18.436Z,16.90
2019-04-25T16:25:48.114Z,16.80
2019-04-25T16:28:17.812Z,16.70
2019-04-25T16:30:47.716Z,16.70
2019-04-25T16:33:17.379Z,16.70
2019-04-25T16:35:47.052Z,16.60
2019-04-25T16:38:17.397Z,16.60
2019-04-25T16:40:47.044Z,16.50
2019-04-25T16:43:20.399Z,16.40
2019-04-25T16:45:50.135Z,16.40
2019-04-25T16:48:19.871Z,16.40
2019-04-25T16:50:49.523Z,16.40
2019-04-25T16:53:19.252Z,16.30
2019-04-25T16:55:48.877Z,16.30
2019-04-25T16:58:18.960Z,16.20
2019-04-25T17:00:57.378Z,16.10
2019-04-25T17:03:29.947Z,15.90
2019-04-25T17:05:59.909Z,15.80
2019-04-25T17:08:29.872Z,15.80
2019-04-25T17:11:00.579Z,15.80
2019-04-25T17:13:32.126Z,15.80
2019-04-25T17:16:34.701Z,15.80
2019-04-25T17:19:08.718Z,15.80
2019-04-25T17:21:39.168Z,15.80
2019-04-25T17:24:09.023Z,15.70
2019-04-25T17:26:39.508Z,15.70
2019-04-25T17:29:13.228Z,15.60
2019-04-25T17:31:53.697Z,15.60
2019-04-25T17:34:34.063Z,15.50
2019-04-25T17:37:14.892Z,15.50
2019-04-25T17:39:46.731Z,15.50
2019-04-25T17:42:16.388Z,15.50
2019-04-25T17:44:46.044Z,15.40
2019-04-25T17:47:15.949Z,15.30
2019-04-25T17:49:45.644Z,15.20
2019-04-25T17:52:19.852Z,15.10
2019-04-25T17:54:49.579Z,15.10
2019-04-25T17:57:19.247Z,15.00
2019-04-25T17:59:48.935Z,14.90
2019-04-25T18:02:18.630Z,14.90
2019-04-25T18:04:48.250Z,14.90
2019-04-25T18:07:17.936Z,14.90
2019-04-25T18:09:47.676Z,14.90
2019-04-25T18:12:17.330Z,14.90
2019-04-25T18:14:47.488Z,14.80
2019-04-25T18:17:17.212Z,14.80
2019-04-25T18:20:11.779Z,14.80
2019-04-25T18:22:57.298Z,14.90
2019-04-25T18:25:46.863Z,14.80
2019-04-25T18:28:47.556Z,14.80
2019-04-25T18:31:17.340Z,14.80
2019-04-25T18:33:48.413Z,14.70
2019-04-25T18:36:37.413Z,14.60
2019-04-25T18:39:25.516Z,14.50
2019-04-25T18:42:08.050Z,14.30
2019-04-25T18:44:39.914Z,14.20
2019-04-25T18:47:09.736Z,14.10
2019-04-25T18:49:40.476Z,14.00
2019-04-25T18:52:14.057Z,13.90
2019-04-25T18:54:53.388Z,13.80
2019-04-25T18:57:32.338Z,13.70
2019-04-25T19:00:26.932Z,13.70
2019-04-25T19:03:22.687Z,13.60
2019-04-25T19:05:54.763Z,13.60
2019-04-25T19:08:24.517Z,13.50
2019-04-25T19:10:54.212Z,13.30
2019-04-25T19:13:23.819Z,13.20
2019-04-25T19:15:53.542Z,13.20
2019-04-25T19:18:23.262Z,13.10
2019-04-25T19:20:52.927Z,13.10
2019-04-25T19:23:22.561Z,13.00
2019-04-25T19:25:52.233Z,13.00
2019-04-25T19:28:21.828Z,12.90
2019-04-25T19:30:51.559Z,12.90
2019-04-25T19:33:34.722Z,12.80
2019-04-25T19:35:54.203Z,12.70
2019-04-25T19:38:23.848Z,12.70
2019-04-25T19:40:59.631Z,12.60
2019-04-25T19:43:36.680Z,12.60
2019-04-25T19:46:06.371Z,12.60
2019-04-25T19:48:36.211Z,12.50
2019-04-25T19:51:05.835Z,12.50
2019-04-25T19:53:35.468Z,12.50
2019-04-25T19:56:05.219Z,12.40
2019-04-25T19:58:34.848Z,12.40
2019-04-25T20:01:04.483Z,12.40
2019-04-25T20:03:57.993Z,12.30
2019-04-25T20:06:52.439Z,12.30
2019-04-25T20:09:41.242Z,12.20
2019-04-25T20:12:10.948Z,12.20
2019-04-25T20:14:40.616Z,12.20
2019-04-25T20:17:10.282Z,12.10
2019-04-25T20:19:39.920Z,12.10
2019-04-25T20:24:38.538Z,12.00
2019-04-25T20:27:08.184Z,11.90
2019-04-25T20:29:37.864Z,11.90
2019-04-25T20:32:07.595Z,11.90
2019-04-25T20:34:37.279Z,11.80
2019-04-25T20:37:06.903Z,11.80
2019-04-25T20:39:36.537Z,11.70
2019-04-25T20:42:06.169Z,11.60
2019-04-25T20:44:36.645Z,11.60
2019-04-25T20:47:06.316Z,11.50
2019-04-25T20:49:36.012Z,11.50
2019-04-25T20:52:05.649Z,11.40
2019-04-25T20:54:35.276Z,11.40
2019-04-25T20:57:04.940Z,11.40
2019-04-25T20:59:34.580Z,11.30
2019-04-25T21:02:05.217Z,11.30
2019-04-25T21:04:41.775Z,11.30
2019-04-25T21:07:11.620Z,11.30
2019-04-25T21:09:41.335Z,11.30
2019-04-25T21:12:10.961Z,11.20
2019-04-25T21:14:49.221Z,11.20
2019-04-25T21:17:37.853Z,11.20
2019-04-25T21:20:08.208Z,11.10
2019-04-25T21:22:37.920Z,11.20
2019-04-25T21:25:08.172Z,11.20
2019-04-25T21:27:37.836Z,11.20
2019-04-25T21:30:09.651Z,11.20
2019-04-25T21:32:55.721Z,11.10
2019-04-25T21:35:25.787Z,11.00
2019-04-25T21:37:55.492Z,11.00
2019-04-25T21:40:49.923Z,11.00
2019-04-25T21:43:25.405Z,11.00
2019-04-25T21:45:56.002Z,11.00
2019-04-25T21:48:26.120Z,11.00
2019-04-25T21:50:56.981Z,11.00
2019-04-25T21:53:26.759Z,11.00
2019-04-25T21:55:56.908Z,11.00
2019-04-25T21:58:27.516Z,11.00
2019-04-25T22:01:05.822Z,11.00
2019-04-25T22:03:35.450Z,10.90
2019-04-25T22:06:05.475Z,10.90
2019-04-25T22:08:35.090Z,10.90
2019-04-25T22:11:05.528Z,10.90
2019-04-25T22:13:35.467Z,10.80
2019-04-25T22:16:05.946Z,10.80
2019-04-25T22:18:35.912Z,10.80
2019-04-25T22:21:06.526Z,10.80
2019-04-25T22:23:36.679Z,10.80
2019-04-25T22:26:07.054Z,10.80
2019-04-25T22:28:36.938Z,10.70
2019-04-25T22:31:12.083Z,10.70
2019-04-25T22:33:55.612Z,10.70
2019-04-25T22:36:25.921Z,10.60
2019-04-25T22:39:11.229Z,10.60
2019-04-25T22:41:46.582Z,10.50
2019-04-25T22:44:17.520Z,10.50
2019-04-25T22:46:47.548Z,10.50
2019-04-25T22:49:17.172Z,10.40
2019-04-25T22:51:46.848Z,10.40
2019-04-25T22:54:16.779Z,10.30
2019-04-25T22:56:46.474Z,10.30
2019-04-25T22:59:16.516Z,10.30
2019-04-25T23:02:03.644Z,10.20
2019-04-25T23:04:51.155Z,10.10
2019-04-25T23:07:20.783Z,10.10
2019-04-25T23:09:51.311Z,10.00
2019-04-25T23:12:21.229Z,10.00
2019-04-25T23:14:50.851Z,9.90
2019-04-25T23:17:20.492Z,9.90
2019-04-25T23:19:50.366Z,9.80
2019-04-25T23:22:19.983Z,9.80
2019-04-25T23:24:57.921Z,9.80
2019-04-25T23:27:55.528Z,9.80
2019-04-25T23:30:29.552Z,9.70
2019-04-25T23:32:59.241Z,9.70
2019-04-25T23:35:29.971Z,9.70
2019-04-25T23:38:00.217Z,9.70
2019-04-25T23:40:29.912Z,9.60
2019-04-25T23:42:59.863Z,9.60
2019-04-25T23:45:29.616Z,9.60
2019-04-25T23:47:59.235Z,9.60
2019-04-25T23:50:29.203Z,9.60
2019-04-25T23:52:58.782Z,9.60
2019-04-25T23:55:28.775Z,9.60
2019-04-25T23:57:58.464Z,9.60
